Time;durP1;ratioP1;P1;durP2;ratioP2;P2;SDS_P1;SDS_P2;PMS_P1;PMS_P2;Temp;Humidity;BMP_temperature;BMP_pressure;BME280_temperature;BME280_humidity;BME280_pressure;Samples;Min_cycle;Max_cycle;Signal;HPM_P1;HPM_P2
2023/04/10 00:02:24;;;;;;;11.80;2.37;;;;;;;16.60;nan;101954.03;4881895;29;20956;-87
2023/04/10 00:04:52;;;;;;;12.60;2.23;;;;;;;16.56;nan;101942.53;4905162;29;20460;-87
2023/04/10 00:07:20;;;;;;;18.47;3.10;;;;;;;16.64;nan;101949.00;4915844;29;20468;-87
2023/04/10 00:09:47;;;;;;;9.00;2.77;;;;;;;16.62;nan;101951.06;4915583;29;20456;-88
2023/04/10 00:12:15;;;;;;;24.43;2.80;;;;;;;16.61;nan;101955.75;4900216;29;20851;-87
2023/04/10 00:14:45;;;;;;;20.50;2.73;;;;;;;16.59;nan;101958.69;4882120;29;20464;-88
2023/04/10 00:17:13;;;;;;;12.80;3.20;;;;;;;16.55;nan;101946.34;4899532;29;20811;-88
2023/04/10 00:19:41;;;;;;;15.70;2.73;;;;;;;16.54;nan;101944.69;4919867;29;20456;-87
2023/04/10 00:22:09;;;;;;;8.30;2.47;;;;;;;16.53;nan;101942.97;4918115;29;20485;-87
2023/04/10 00:24:39;;;;;;;17.20;3.53;;;;;;;16.61;nan;101943.84;4900597;29;20449;-87
2023/04/10 00:27:08;;;;;;;12.07;3.00;;;;;;;16.55;nan;101940.00;4917104;29;20453;-87
2023/04/10 00:29:36;;;;;;;13.73;2.33;;;;;;;16.53;nan;101926.41;4900226;29;20456;-87
2023/04/10 00:32:04;;;;;;;11.43;2.53;;;;;;;16.52;nan;101935.75;4884773;29;20488;-87
2023/04/10 00:34:32;;;;;;;10.37;2.33;;;;;;;16.47;nan;101924.47;4915675;29;20460;-88
2023/04/10 00:37:04;;;;;;;18.27;3.00;;;;;;;16.42;nan;101920.59;4915605;29;20460;-87
2023/04/10 00:39:33;;;;;;;19.23;2.43;;;;;;;16.40;nan;101920.81;4900531;29;20448;-87
2023/04/10 00:42:02;;;;;;;15.53;2.60;;;;;;;16.42;nan;101924.22;4898073;29;20457;-88
2023/04/10 00:44:30;;;;;;;21.37;4.43;;;;;;;16.45;nan;101929.34;4911890;29;20453;-87
2023/04/10 00:46:58;;;;;;;17.73;2.93;;;;;;;16.42;nan;101924.22;4916324;29;20457;-87
2023/04/10 00:49:25;;;;;;;12.10;2.37;;;;;;;16.45;nan;101934.00;4906862;29;20448;-87
2023/04/10 00:51:53;;;;;;;16.37;2.30;;;;;;;16.42;nan;101921.47;4920002;29;20444;-87
2023/04/10 00:54:23;;;;;;;11.23;2.17;;;;;;;16.38;nan;101922.91;4889788;29;20966;-88
2023/04/10 00:56:51;;;;;;;8.40;2.20;;;;;;;16.32;nan;101909.94;4907097;29;20448;-87
2023/04/10 00:59:20;;;;;;;14.33;2.87;;;;;;;16.35;nan;101919.72;4890312;29;20478;-87
2023/04/10 01:01:51;;;;;;;7.60;1.93;;;;;;;16.23;nan;101917.53;4907606;29;20452;-87
2023/04/10 01:04:20;;;;;;;10.37;2.27;;;;;;;16.16;nan;101907.53;4906804;29;20816;-87
2023/04/10 01:06:59;;;;;;;13.03;2.60;;;;;;;16.27;nan;101926.25;4907272;29;20458;-86
2023/04/10 01:09:47;;;;;;;14.77;2.57;;;;;;;16.27;nan;101919.88;4922334;29;20451;-86
2023/04/10 01:12:44;;;;;;;11.97;2.43;;;;;;;16.25;nan;101920.09;4920652;29;20834;-86
2023/04/10 01:15:15;;;;;;;10.60;2.80;;;;;;;16.16;nan;101913.03;4915209;29;20467;-87
2023/04/10 01:18:02;;;;;;;17.13;3.07;;;;;;;16.19;nan;101923.63;4903581;29;20444;-86
2023/04/10 01:20:31;;;;;;;8.60;2.37;;;;;;;16.13;nan;101918.94;4934248;29;20460;-86
2023/04/10 01:22:59;;;;;;;16.77;3.70;;;;;;;16.11;nan;101923.81;4903005;29;20948;-87
2023/04/10 01:25:40;;;;;;;8.33;2.60;;;;;;;16.08;nan;101916.78;4928133;29;20462;-86
2023/04/10 01:28:30;;;;;;;14.53;2.30;;;;;;;16.04;nan;101918.25;4899976;29;20812;-86
2023/04/10 01:30:58;;;;;;;12.40;3.00;;;;;;;15.98;nan;101919.03;4915103;29;20457;-86
2023/04/10 01:33:49;;;;;;;17.03;2.93;;;;;;;15.96;nan;101907.38;4899579;29;20488;-86
2023/04/10 01:36:25;;;;;;;18.57;2.67;;;;;;;15.88;nan;101921.31;4897586;29;20979;-87
2023/04/10 01:38:53;;;;;;;10.27;2.60;;;;;;;15.78;nan;101901.47;4914699;29;20959;-87
2023/04/10 01:41:21;;;;;;;16.33;2.80;;;;;;;15.79;nan;101917.81;4915522;29;20508;-86
2023/04/10 01:43:50;;;;;;;9.13;2.47;;;;;;;15.73;nan;101904.88;4903081;29;20461;-86
2023/04/10 01:46:19;;;;;;;13.13;2.37;;;;;;;15.70;nan;101902.50;4899306;29;21156;-87
2023/04/10 01:48:47;;;;;;;19.27;3.67;;;;;;;15.72;nan;101905.91;4884012;29;20450;-87
2023/04/10 01:51:15;;;;;;;18.30;2.90;;;;;;;15.69;nan;101900.78;4900342;29;20955;-86
2023/04/10 01:53:46;;;;;;;13.00;2.07;;;;;;;15.61;nan;101898.16;4917991;29;20920;-87
2023/04/10 01:56:14;;;;;;;25.57;2.90;;;;;;;15.62;nan;101894.34;4902482;29;20551;-86
2023/04/10 01:58:42;;;;;;;23.50;2.83;;;;;;;15.59;nan;101903.03;4901898;29;20504;-86
2023/04/10 02:01:10;;;;;;;16.67;2.73;;;;;;;15.51;nan;101884.72;4886998;29;20437;-87
2023/04/10 02:03:49;;;;;;;23.20;3.30;;;;;;;15.51;nan;101898.47;4890319;29;20460;-87
2023/04/10 02:06:40;;;;;;;11.13;2.80;;;;;;;15.50;nan;101893.16;4919194;29;21012;-86
2023/04/10 02:09:26;;;;;;;12.97;2.83;;;;;;;15.51;nan;101895.72;4889106;29;20453;-87
2023/04/10 02:11:57;;;;;;;14.40;2.87;;;;;;;15.53;nan;101890.03;4883939;29;20461;-87
2023/04/10 02:14:29;;;;;;;17.13;3.70;;;;;;;15.52;nan;101891.06;4885445;29;20956;-86
2023/04/10 02:16:57;;;;;;;12.03;2.90;;;;;;;15.55;nan;101890.69;4905471;29;20832;-88
2023/04/10 02:19:26;;;;;;;8.93;2.87;;;;;;;15.55;nan;101885.16;4902297;29;20452;-87
2023/04/10 02:21:54;;;;;;;12.40;2.93;;;;;;;15.56;nan;101883.31;4895283;29;20806;-87
2023/04/10 02:24:22;;;;;;;19.83;3.70;;;;;;;15.51;nan;101879.19;4898827;29;20799;-87
2023/04/10 02:26:50;;;;;;;16.90;3.37;;;;;;;15.51;nan;101881.09;4900767;29;20875;-87
2023/04/10 02:29:18;;;;;;;14.47;3.20;;;;;;;15.52;nan;101877.28;4917563;29;20464;-86
2023/04/10 02:31:46;;;;;;;25.17;3.63;;;;;;;15.51;nan;101873.69;4886822;29;20452;-86
2023/04/10 02:34:13;;;;;;;19.13;3.20;;;;;;;15.52;nan;101877.28;4901687;29;20999;-87
2023/04/10 02:36:41;;;;;;;18.47;3.67;;;;;;;15.47;nan;101877.88;4902177;29;20512;-87
2023/04/10 02:39:09;;;;;;;19.30;3.80;;;;;;;15.46;nan;101872.56;4901833;29;20457;-87
2023/04/10 02:41:37;;;;;;;14.70;3.43;;;;;;;15.47;nan;101874.28;4896795;29;20997;-87
2023/04/10 02:44:05;;;;;;;15.50;3.60;;;;;;;15.40;nan;101865.09;4886757;29;20482;-87
2023/04/10 02:46:33;;;;;;;20.60;3.93;;;;;;;15.46;nan;101880.84;4901715;29;20951;-88
2023/04/10 02:49:01;;;;;;;16.87;3.53;;;;;;;15.46;nan;101883.59;4844894;29;20464;-88
2023/04/10 02:51:35;;;;;;;20.40;3.63;;;;;;;15.44;nan;101883.78;4858998;29;20464;-87
2023/04/10 02:54:03;;;;;;;15.83;3.47;;;;;;;15.39;nan;101877.19;4875547;29;20487;-87
2023/04/10 02:56:35;;;;;;;22.23;3.17;;;;;;;15.41;nan;101884.19;4863248;29;20477;-87
2023/04/10 02:59:03;;;;;;;29.83;4.67;;;;;;;15.35;nan;101873.13;4860223;29;20466;-88
2023/04/10 03:01:31;;;;;;;26.70;4.20;;;;;;;15.35;nan;101884.13;4845206;29;20447;-88
2023/04/10 03:04:02;;;;;;;22.20;3.97;;;;;;;15.32;nan;101871.59;4863687;29;20455;-87
2023/04/10 03:06:30;;;;;;;23.00;4.10;;;;;;;15.31;nan;101882.81;4848283;29;20450;-86
2023/04/10 03:08:58;;;;;;;13.00;3.13;;;;;;;15.31;nan;101880.06;4878702;29;20493;-86
2023/04/10 03:11:26;;;;;;;17.70;3.57;;;;;;;15.21;nan;101872.97;4845895;29;20499;-87
2023/04/10 03:13:57;;;;;;;20.97;3.90;;;;;;;15.28;nan;101880.44;4909914;29;20476;-87
2023/04/10 03:16:25;;;;;;;13.67;3.43;;;;;;;15.27;nan;101873.22;4899519;29;20481;-87
2023/04/10 03:18:52;;;;;;;23.70;4.03;;;;;;;15.24;nan;101868.97;4898206;29;20449;-87
2023/04/10 03:21:20;;;;;;;17.33;3.00;;;;;;;15.25;nan;101881.69;4915256;29;20998;-86
2023/04/10 03:23:51;;;;;;;16.60;4.67;;;;;;;15.27;nan;101881.50;4916747;29;20527;-87
2023/04/10 03:26:19;;;;;;;16.20;3.10;;;;;;;15.30;nan;101884.72;4903229;29;20455;-87
2023/04/10 03:28:51;;;;;;;25.97;4.03;;;;;;;15.27;nan;101879.59;4887509;29;20576;-88
2023/04/10 03:31:19;;;;;;;17.60;4.20;;;;;;;15.28;nan;101895.06;4900819;29;20831;-87
2023/04/10 03:33:46;;;;;;;16.87;4.07;;;;;;;15.26;nan;101890.81;4900378;29;20491;-86
2023/04/10 03:36:14;;;;;;;18.57;3.87;;;;;;;15.21;nan;101883.13;4934005;29;20482;-87
2023/04/10 03:38:44;;;;;;;24.33;4.43;;;;;;;15.25;nan;101891.84;4919644;29;20448;-87
2023/04/10 03:41:12;;;;;;;17.30;4.20;;;;;;;15.23;nan;101889.28;4919554;29;20506;-87
2023/04/10 03:43:41;;;;;;;26.40;4.37;;;;;;;15.18;nan;101887.16;4904668;29;20444;-87
2023/04/10 03:46:09;;;;;;;19.20;4.60;;;;;;;15.18;nan;101895.41;4935893;29;20981;-86
2023/04/10 03:48:38;;;;;;;16.53;3.87;;;;;;;15.16;nan;101881.00;4919599;29;20462;-86
2023/04/10 03:51:06;;;;;;;28.00;4.80;;;;;;;15.15;nan;101887.53;4916335;29;20467;-86
2023/04/10 03:53:35;;;;;;;21.30;4.10;;;;;;;15.13;nan;101886.88;4919608;29;20604;-86
2023/04/10 03:56:03;;;;;;;18.87;3.83;;;;;;;15.19;nan;101899.03;4887814;29;20476;-86
2023/04/10 03:58:31;;;;;;;14.77;3.37;;;;;;;15.18;nan;101892.66;4861878;29;20462;-87
2023/04/10 04:00:58;;;;;;;13.60;4.00;;;;;;;15.24;nan;101899.25;4844292;29;20466;-87
2023/04/10 04:03:26;;;;;;;10.43;3.27;;;;;;;15.18;nan;101892.66;4850459;29;20496;-86
2023/04/10 04:05:54;;;;;;;15.97;4.23;;;;;;;15.15;nan;101890.28;4864259;29;20448;-86
2023/04/10 04:08:22;;;;;;;17.53;4.90;;;;;;;15.23;nan;101900.31;4829011;29;20986;-88
2023/04/10 04:10:50;;;;;;;25.77;5.63;;;;;;;15.18;nan;101894.56;4870854;29;20450;-86
2023/04/10 04:13:19;;;;;;;23.00;5.33;;;;;;;15.12;nan;101890.69;4880979;29;20540;-87
2023/04/10 04:15:47;;;;;;;22.33;4.90;;;;;;;15.15;nan;101905.97;4861797;29;20460;-86
2023/04/10 04:18:15;;;;;;;20.20;4.27;;;;;;;15.05;nan;101887.00;4888473;29;20791;-86
2023/04/10 04:20:44;;;;;;;19.63;3.90;;;;;;;15.12;nan;101904.44;4903371;29;20510;-86
2023/04/10 04:23:12;;;;;;;27.40;4.30;;;;;;;15.07;nan;101892.31;4918624;29;20450;-86
2023/04/10 04:25:40;;;;;;;17.10;4.20;;;;;;;15.05;nan;101892.50;4903267;29;20456;-86
2023/04/10 04:28:10;;;;;;;17.27;5.23;;;;;;;14.92;nan;101886.84;4901921;29;20510;-87
2023/04/10 04:30:38;;;;;;;17.63;4.53;;;;;;;14.87;nan;101883.81;4903549;29;20872;-87
2023/04/10 04:33:06;;;;;;;16.43;3.90;;;;;;;14.84;nan;101895.22;4903603;29;20452;-87
2023/04/10 04:35:33;;;;;;;18.80;4.73;;;;;;;14.86;nan;101901.38;4903174;29;20451;-88
2023/04/10 04:38:01;;;;;;;18.43;4.03;;;;;;;14.70;nan;101890.59;4888234;29;20452;-87
2023/04/10 04:40:28;;;;;;;11.37;4.23;;;;;;;14.76;nan;101893.44;4890509;29;20457;-87
2023/04/10 04:42:56;;;;;;;14.93;4.23;;;;;;;14.78;nan;101898.75;4881375;29;21011;-87
2023/04/10 04:45:25;;;;;;;12.87;3.97;;;;;;;14.81;nan;101903.88;4898906;29;20464;-87
2023/04/10 04:47:53;;;;;;;20.87;4.10;;;;;;;14.81;nan;101899.25;4915517;29;20454;-88
2023/04/10 04:50:20;;;;;;;16.50;3.80;;;;;;;14.68;nan;101903.69;4879414;29;21145;-88
2023/04/10 04:52:48;;;;;;;13.40;3.70;;;;;;;14.70;nan;101907.13;4888107;29;20963;-87
2023/04/10 04:55:17;;;;;;;17.23;4.57;;;;;;;14.73;nan;101915.84;4918743;29;20491;-89
2023/04/10 04:57:45;;;;;;;15.47;4.03;;;;;;;14.71;nan;101925.34;4910826;29;20459;-87
2023/04/10 05:00:14;;;;;;;17.30;4.53;;;;;;;14.67;nan;101929.50;4928773;29;20449;-87
2023/04/10 05:02:42;;;;;;;18.03;4.13;;;;;;;14.69;nan;101932.94;4913140;29;20955;-86
2023/04/10 05:05:10;;;;;;;19.27;4.90;;;;;;;14.75;nan;101934.94;4903103;29;20951;-86
2023/04/10 05:07:39;;;;;;;29.70;5.63;;;;;;;14.71;nan;101947.34;4903354;29;20448;-86
2023/04/10 05:10:07;;;;;;;17.93;4.17;;;;;;;14.68;nan;101950.47;4892697;29;20457;-86
2023/04/10 05:12:35;;;;;;;10.20;3.50;;;;;;;14.69;nan;101950.28;4911355;29;20461;-86
2023/04/10 05:15:03;;;;;;;23.67;4.27;;;;;;;14.71;nan;101961.13;4899919;29;20507;-87
2023/04/10 05:17:31;;;;;;;16.17;4.67;;;;;;;14.68;nan;101942.22;4899796;29;20459;-86
2023/04/10 05:19:59;;;;;;;18.30;5.10;;;;;;;14.74;nan;101953.34;4924937;29;20469;-87
2023/04/10 05:22:27;;;;;;;19.00;6.33;;;;;;;14.69;nan;101958.56;4881249;29;20453;-86
2023/04/10 05:24:55;;;;;;;26.03;6.77;;;;;;;14.67;nan;101968.91;4919751;29;20962;-86
2023/04/10 05:27:23;;;;;;;17.27;5.80;;;;;;;14.61;nan;101957.81;4899964;29;20496;-86
2023/04/10 05:29:50;;;;;;;17.97;4.77;;;;;;;14.62;nan;101962.28;4929187;29;20450;-87
2023/04/10 05:32:18;;;;;;;17.33;4.37;;;;;;;14.52;nan;101959.78;4902950;29;20956;-87
2023/04/10 05:34:46;;;;;;;33.07;4.90;;;;;;;14.55;nan;101975.94;4891966;29;20487;-86
2023/04/10 05:37:14;;;;;;;18.90;4.10;;;;;;;14.58;nan;101972.81;4937541;29;20444;-87
2023/04/10 05:39:44;;;;;;;19.30;4.67;;;;;;;14.60;nan;101975.38;4921346;29;20523;-86
2023/04/10 05:42:13;;;;;;;25.83;3.53;;;;;;;14.63;nan;101983.22;4922373;29;20452;-86
2023/04/10 05:44:41;;;;;;;10.93;3.13;;;;;;;14.68;nan;101983.50;4921598;29;20522;-86
2023/04/10 05:47:09;;;;;;;20.13;4.00;;;;;;;14.66;nan;101982.84;4906433;29;20460;-86
2023/04/10 05:49:38;;;;;;;22.07;3.97;;;;;;;14.69;nan;101982.47;4935158;29;20456;-86
2023/04/10 05:52:08;;;;;;;25.07;3.90;;;;;;;14.72;nan;101990.34;4936228;29;20460;-86
2023/04/10 05:54:36;;;;;;;19.40;4.90;;;;;;;14.69;nan;101996.22;4935578;29;20546;-86
2023/04/10 05:57:04;;;;;;;23.20;4.57;;;;;;;14.70;nan;101998.78;4905986;29;20853;-86
2023/04/10 05:59:32;;;;;;;20.63;3.87;;;;;;;14.69;nan;102007.22;4890041;29;20511;-87
2023/04/10 06:02:01;;;;;;;21.90;4.30;;;;;;;14.62;nan;102000.81;4883251;29;20453;-86
2023/04/10 06:04:29;;;;;;;17.63;4.10;;;;;;;14.66;nan;102010.34;4912143;29;20780;-86
2023/04/10 06:06:58;;;;;;;22.87;4.63;;;;;;;14.66;nan;102013.09;4920980;29;20459;-86
2023/04/10 06:09:26;;;;;;;17.30;4.30;;;;;;;14.67;nan;102025.81;4921072;29;20455;-86
2023/04/10 06:11:57;;;;;;;15.03;4.27;;;;;;;14.66;nan;102018.63;4888635;29;20463;-88
2023/04/10 06:14:24;;;;;;;19.67;3.80;;;;;;;14.67;nan;102014.81;4883471;29;20493;-86
2023/04/10 06:16:52;;;;;;;20.93;3.67;;;;;;;14.65;nan;102016.91;4900677;29;20450;-86
2023/04/10 06:19:20;;;;;;;17.50;3.73;;;;;;;14.57;nan;101995.84;4918300;29;20440;-86
2023/04/10 06:21:48;;;;;;;19.90;4.00;;;;;;;14.62;nan;102018.16;4933435;29;20534;-87
2023/04/10 06:24:18;;;;;;;20.97;5.13;;;;;;;14.72;nan;102031.63;4935468;29;20459;-87
2023/04/10 06:26:47;;;;;;;20.97;4.40;;;;;;;14.71;nan;102032.66;4905684;29;20938;-86
2023/04/10 06:29:15;;;;;;;21.23;3.80;;;;;;;14.71;nan;102032.66;4902856;29;20452;-86
2023/04/10 06:31:44;;;;;;;11.60;3.50;;;;;;;14.71;nan;102030.78;4890273;29;20467;-86
2023/04/10 06:34:12;;;;;;;15.97;3.40;;;;;;;14.78;nan;102037.22;4937327;29;20903;-85
2023/04/10 06:36:39;;;;;;;17.43;4.53;;;;;;;14.74;nan;102026.78;4902977;29;20519;-86
2023/04/10 06:39:07;;;;;;;16.20;4.10;;;;;;;14.65;nan;102016.91;4890057;29;20451;-86
2023/04/10 06:41:36;;;;;;;21.23;4.23;;;;;;;14.71;nan;102038.16;4881245;29;20452;-89
2023/04/10 06:44:04;;;;;;;19.40;5.03;;;;;;;14.71;nan;102035.41;4915325;29;20456;-86
2023/04/10 06:46:34;;;;;;;18.70;5.17;;;;;;;14.74;nan;102043.31;4870626;29;20467;-87
2023/04/10 06:49:02;;;;;;;22.20;5.57;;;;;;;14.74;nan;102035.91;4905304;29;20452;-87
2023/04/10 06:51:30;;;;;;;23.27;5.53;;;;;;;14.76;nan;102041.22;4916582;29;20459;-86
2023/04/10 06:53:59;;;;;;;21.67;5.33;;;;;;;14.73;nan;102042.44;4904131;29;20480;-87
2023/04/10 06:56:28;;;;;;;17.43;6.37;;;;;;;14.72;nan;102042.63;4922586;29;20486;-88
2023/04/10 06:58:56;;;;;;;25.30;5.70;;;;;;;14.77;nan;102042.94;4898086;29;20457;-87
2023/04/10 07:01:25;;;;;;;12.37;3.33;;;;;;;14.83;nan;102055.91;4915439;29;20509;-89
2023/04/10 07:03:53;;;;;;;13.73;6.33;;;;;;;14.90;nan;102069.78;4920107;29;20462;-87
2023/04/10 07:06:21;;;;;;;27.83;7.43;;;;;;;14.98;nan;102075.19;4884717;29;20458;-86
2023/04/10 07:08:49;;;;;;;22.73;8.23;;;;;;;14.96;nan;102064.38;4891818;29;20455;-87
2023/04/10 07:11:17;;;;;;;14.17;4.57;;;;;;;14.97;nan;102085.34;4920407;29;20456;-86
2023/04/10 07:13:44;;;;;;;12.30;3.30;;;;;;;14.97;nan;102082.59;4918361;29;20503;-86
2023/04/10 07:16:12;;;;;;;12.67;3.10;;;;;;;14.99;nan;102085.19;4935702;29;20463;-87
2023/04/10 07:18:40;;;;;;;20.93;3.33;;;;;;;15.07;nan;102093.31;4934610;29;20506;-87
2023/04/10 07:21:10;;;;;;;17.67;3.37;;;;;;;15.11;nan;102087.25;4936121;29;20448;-87
2023/04/10 07:23:38;;;;;;;19.50;2.77;;;;;;;15.19;nan;102092.66;4920378;29;20463;-87
2023/04/10 07:26:06;;;;;;;12.20;2.73;;;;;;;15.27;nan;102099.09;4933567;29;20456;-87
2023/04/10 07:28:34;;;;;;;13.90;2.63;;;;;;;15.30;nan;102098.72;4919767;29;21001;-85
2023/04/10 07:31:02;;;;;;;19.17;4.07;;;;;;;15.26;nan;102089.97;4904591;29;20463;-87
2023/04/10 07:33:30;;;;;;;13.70;3.07;;;;;;;15.41;nan;102106.47;4935543;29;20451;-86
2023/04/10 07:36:01;;;;;;;20.73;3.80;;;;;;;15.41;nan;102095.47;4918624;29;20491;-87
2023/04/10 07:38:29;;;;;;;16.80;2.97;;;;;;;15.50;nan;102110.84;4919722;29;20950;-86
2023/04/10 07:40:58;;;;;;;9.57;3.17;;;;;;;15.63;nan;102124.81;4903056;29;20448;-87
2023/04/10 07:43:26;;;;;;;8.83;3.43;;;;;;;15.68;nan;102118.72;4919483;29;20942;-86
2023/04/10 07:45:55;;;;;;;7.43;2.10;;;;;;;15.71;nan;102124.72;4918132;29;20977;-87
2023/04/10 07:48:25;;;;;;;22.90;2.57;;;;;;;15.76;nan;102136.03;4935011;29;20454;-87
2023/04/10 07:50:53;;;;;;;10.50;2.17;;;;;;;15.79;nan;102120.97;4921756;29;20445;-87
2023/04/10 07:53:21;;;;;;;12.77;3.10;;;;;;;15.93;nan;102127.50;4900870;29;20512;-87
2023/04/10 07:55:52;;;;;;;10.57;2.67;;;;;;;16.04;nan;102135.25;4885888;29;20556;-87
2023/04/10 07:58:20;;;;;;;11.90;3.00;;;;;;;16.11;nan;102127.91;4896541;29;20501;-87
2023/04/10 08:00:48;;;;;;;9.13;2.50;;;;;;;16.22;nan;102136.50;4911573;29;20997;-86
2023/04/10 08:03:15;;;;;;;14.87;2.63;;;;;;;16.28;nan;102123.00;4905673;29;20464;-87
2023/04/10 08:05:44;;;;;;;11.23;2.70;;;;;;;16.37;nan;102135.59;4929363;29;20459;-87
2023/04/10 08:08:13;;;;;;;6.27;2.30;;;;;;;16.46;nan;102142.69;4919441;29;20448;-87
2023/04/10 08:10:40;;;;;;;9.20;2.83;;;;;;;16.50;nan;102131.06;4903747;29;20997;-87
2023/04/10 08:13:10;;;;;;;16.23;2.50;;;;;;;16.67;nan;102136.31;4903824;29;20463;-87
2023/04/10 08:15:38;;;;;;;11.03;2.20;;;;;;;16.65;nan;102132.91;4902280;29;20495;-87
2023/04/10 08:18:11;;;;;;;16.30;2.00;;;;;;;16.79;nan;102141.09;4936018;29;20452;-87
2023/04/10 08:20:39;;;;;;;10.77;2.20;;;;;;;16.89;nan;102133.31;4903356;29;20460;-88
2023/04/10 08:23:07;;;;;;;6.20;2.40;;;;;;;16.95;nan;102139.91;4883407;29;20510;-88
2023/04/10 08:25:46;;;;;;;8.50;2.20;;;;;;;17.10;nan;102148.97;4901971;29;20452;-88
2023/04/10 08:28:15;;;;;;;17.97;2.40;;;;;;;17.29;nan;102141.00;4934752;29;20973;-88
2023/04/10 08:30:44;;;;;;;8.17;1.90;;;;;;;17.34;nan;102138.47;4900868;29;20510;-87
2023/04/10 08:33:12;;;;;;;15.23;2.30;;;;;;;17.40;nan;102143.19;4911482;29;20460;-88
2023/04/10 08:35:46;;;;;;;21.77;2.70;;;;;;;17.51;nan;102151.72;4917083;29;20543;-88
2023/04/10 08:38:14;;;;;;;7.23;2.10;;;;;;;17.63;nan;102152.03;4916966;29;20453;-88
2023/04/10 08:40:43;;;;;;;13.67;3.23;;;;;;;17.65;nan;102141.66;4903549;29;20457;-88
2023/04/10 08:43:17;;;;;;;16.07;2.20;;;;;;;17.73;nan;102154.41;4882878;29;20530;-90
2023/04/10 08:45:56;;;;;;;21.47;2.70;;;;;;;17.72;nan;102148.03;4887043;29;20471;-89
2023/04/10 08:48:33;;;;;;;22.90;2.60;;;;;;;17.76;nan;102149.34;4900822;29;20458;-90
2023/04/10 08:51:01;;;;;;;23.53;2.57;;;;;;;17.83;nan;102155.75;4918099;29;20515;-90
2023/04/10 08:53:40;;;;;;;10.47;2.40;;;;;;;17.90;nan;102162.13;4904289;29;20487;-89
2023/04/10 08:56:10;;;;;;;8.60;2.13;;;;;;;18.02;nan;102167.09;4903924;29;20495;-90
2023/04/10 08:58:44;;;;;;;15.13;2.47;;;;;;;18.09;nan;102162.44;4903113;29;20874;-91
2023/04/10 09:01:14;;;;;;;19.23;2.50;;;;;;;18.21;nan;102152.44;4904759;29;20448;-89
2023/04/10 09:03:51;;;;;;;15.43;2.00;;;;;;;18.36;nan;102155.88;4904353;29;20448;-95
2023/04/10 09:06:20;;;;;;;18.10;2.90;;;;;;;18.50;nan;102170.59;4898302;29;20468;-93
2023/04/10 09:09:34;;;;;;;;;;;;;;;;;;;;;
2023/04/10 09:25:10;;;;;;;8.33;2.87;;;;;;;18.98;nan;102193.44;4826040;29;20886;-89
2023/04/10 09:40:23;;;;;;;18.53;3.03;;;;;;;19.45;nan;102205.28;4616138;31;20530;-88
2023/04/10 09:47:38;;;;;;;12.20;2.40;;;;;;;19.86;nan;102218.88;4625068;31;20475;-89
2023/04/10 10:29:50;;;;;;;7.30;2.37;;;;;;;21.41;nan;102200.72;4826463;29;20504;-93
2023/04/10 10:36:35;;;;;;;14.43;2.47;;;;;;;21.79;nan;102201.34;4812718;29;21032;-93
2023/04/10 10:40:17;;;;;;;10.07;2.60;;;;;;;22.05;nan;102212.19;4796898;29;20557;-93
2023/04/10 10:47:38;;;;;;;9.93;2.23;;;;;;;22.42;nan;102209.31;4770842;30;20539;-92
2023/04/10 10:58:03;;;;;;;8.67;1.70;;;;;;;22.86;nan;102216.38;4779965;30;20441;-91
2023/04/10 11:22:24;;;;;;;;;;;;;;;;;;;;;
2023/04/10 12:23:48;;;;;;;9.90;1.90;;;;;;;25.34;nan;102163.91;4899287;29;20834;-93
2023/04/10 12:42:25;;;;;;;11.43;2.23;;;;;;;24.94;nan;102147.31;4788569;29;20445;-91
2023/04/10 12:53:27;;;;;;;6.27;1.90;;;;;;;25.33;nan;102129.47;4848284;29;20496;-91
2023/04/10 12:56:59;;;;;;;;;;;;;;;;;;;;;
2023/04/10 13:00:23;;;;;;;13.13;3.03;;;;;;;25.73;nan;102125.53;4889653;29;20438;-91
2023/04/10 13:26:26;;;;;;;9.50;2.67;;;;;;;26.03;nan;102109.06;4826318;29;20420;-91
2023/04/10 13:33:46;;;;;;;10.43;2.23;;;;;;;25.87;nan;102110.00;4773480;29;20504;-92
2023/04/10 14:06:59;;;;;;;19.53;2.87;;;;;;;25.98;nan;102106.22;4901776;29;20417;-93
2023/04/10 14:09:32;;;;;;;8.63;1.80;;;;;;;25.84;nan;102104.94;4857959;29;20844;-92
2023/04/10 14:28:38;;;;;;;12.93;2.63;;;;;;;25.32;nan;102080.19;4901372;29;20450;-92
2023/04/10 14:50:38;;;;;;;11.17;2.20;;;;;;;25.22;nan;102095.97;4900732;29;20405;-92
2023/04/10 14:53:08;;;;;;;11.83;2.23;;;;;;;24.90;nan;102070.59;4869459;29;20461;-92
2023/04/10 14:59:54;;;;;;;16.63;2.57;;;;;;;25.03;nan;102103.81;4900564;29;20532;-92
2023/04/10 15:02:22;;;;;;;8.60;2.20;;;;;;;24.88;nan;102068.06;4868934;29;21027;-93
2023/04/10 15:04:55;;;;;;;8.80;2.13;;;;;;;24.87;nan;102085.09;4854821;29;20461;-92
2023/04/10 15:11:29;;;;;;;6.27;1.57;;;;;;;24.34;nan;102075.28;4900328;29;20437;-92
2023/04/10 15:13:58;;;;;;;12.00;2.00;;;;;;;24.22;nan;102063.31;4853889;29;20461;-91
2023/04/10 15:16:36;;;;;;;9.00;2.03;;;;;;;24.18;nan;102085.31;4883460;29;21000;-91
2023/04/10 15:19:05;;;;;;;10.30;1.80;;;;;;;24.07;nan;102066.66;4884509;29;20461;-91
2023/04/10 15:21:33;;;;;;;13.43;2.13;;;;;;;24.13;nan;102076.00;4853285;29;20457;-91
2023/04/10 15:24:02;;;;;;;17.03;2.80;;;;;;;24.26;nan;102081.28;4883450;29;20571;-92
2023/04/10 15:30:11;;;;;;;6.43;1.63;;;;;;;24.14;nan;102061.78;4900148;29;20400;-91
2023/04/10 15:36:30;;;;;;;10.50;1.93;;;;;;;23.74;nan;102062.72;4899818;29;20582;-92
2023/04/10 15:39:00;;;;;;;7.27;1.70;;;;;;;23.66;nan;102065.06;4883662;29;20468;-93
2023/04/10 15:41:31;;;;;;;9.57;1.53;;;;;;;23.82;nan;102069.84;4853881;29;20454;-93
2023/04/10 15:47:50;;;;;;;14.10;1.97;;;;;;;23.95;nan;102052.78;4899720;29;20851;-92
2023/04/10 15:50:42;;;;;;;13.10;2.63;;;;;;;23.82;nan;102063.41;4875457;29;20441;-92
2023/04/10 15:57:49;;;;;;;8.53;1.70;;;;;;;23.87;nan;102055.97;4899485;29;20545;-91
2023/04/10 16:00:17;;;;;;;8.33;2.20;;;;;;;23.71;nan;102040.00;4883195;29;20458;-91
2023/04/10 16:06:34;;;;;;;13.70;1.27;;;;;;;23.77;nan;102044.63;4899369;29;20424;-91
2023/04/10 16:13:27;;;;;;;19.80;1.73;;;;;;;23.72;nan;102064.06;4899426;29;20975;-92
2023/04/10 16:15:55;;;;;;;9.67;1.70;;;;;;;23.76;nan;102045.72;4882510;29;20489;-93
2023/04/10 16:18:23;;;;;;;12.80;1.33;;;;;;;23.56;nan;102042.50;4852123;29;20800;-92
2023/04/10 16:20:51;;;;;;;8.93;1.47;;;;;;;23.46;nan;102047.88;4852677;29;20457;-93
2023/04/10 16:23:18;;;;;;;10.63;1.77;;;;;;;23.24;nan;102048.53;4882994;29;20465;-93
2023/04/10 16:25:47;;;;;;;6.27;1.70;;;;;;;23.24;nan;102042.13;4882430;29;20454;-93
2023/04/10 16:28:14;;;;;;;8.23;2.00;;;;;;;23.41;nan;102048.63;4882773;29;20457;-93
2023/04/10 16:30:42;;;;;;;13.73;1.87;;;;;;;23.34;nan;102068.28;4882763;29;20502;-93
2023/04/10 16:33:10;;;;;;;8.93;2.10;;;;;;;23.03;nan;102054.75;4852584;29;20461;-93
2023/04/10 16:35:38;;;;;;;10.23;1.80;;;;;;;22.94;nan;102059.00;4852427;29;20484;-93
2023/04/10 16:38:06;;;;;;;9.20;3.13;;;;;;;22.74;nan;102071.34;4852271;29;20465;-93
2023/04/10 16:44:22;;;;;;;10.77;2.37;;;;;;;22.42;nan;102035.72;4899156;29;20836;-93
2023/04/10 16:50:37;;;;;;;9.47;1.67;;;;;;;22.21;nan;102034.34;4899085;29;20846;-92
2023/04/10 16:53:04;;;;;;;11.63;1.77;;;;;;;22.37;nan;102044.78;4852672;29;20907;-92
2023/04/10 16:55:32;;;;;;;16.67;3.23;;;;;;;22.47;nan;102038.63;4866882;29;20477;-93
2023/04/10 17:02:10;;;;;;;15.80;2.20;;;;;;;22.39;nan;102064.91;4898909;29;20446;-92
2023/04/10 17:04:38;;;;;;;10.40;2.03;;;;;;;22.43;nan;102048.56;4866809;29;20468;-93
2023/04/10 17:07:06;;;;;;;13.97;1.80;;;;;;;22.36;nan;102062.59;4882100;29;20473;-93
2023/04/10 17:09:34;;;;;;;12.30;1.63;;;;;;;22.28;nan;102069.38;4882265;29;20462;-93
2023/04/10 17:12:03;;;;;;;15.73;2.63;;;;;;;22.23;nan;102060.88;4882980;29;20509;-93
2023/04/10 17:14:30;;;;;;;11.93;1.87;;;;;;;22.20;nan;102063.28;4882657;29;20473;-93
2023/04/10 17:16:58;;;;;;;6.93;1.53;;;;;;;22.03;nan;102055.63;4881851;29;20493;-93
2023/04/10 17:19:26;;;;;;;7.63;1.40;;;;;;;21.99;nan;102107.28;4851817;29;20461;-93
2023/04/10 17:21:54;;;;;;;9.33;1.93;;;;;;;21.86;nan;102065.72;4851965;29;20460;-93
2023/04/10 17:24:22;;;;;;;11.73;1.90;;;;;;;21.75;nan;102049.81;4882033;29;20458;-93
2023/04/10 17:30:31;;;;;;;9.17;1.57;;;;;;;21.46;nan;102064.56;4900848;29;20840;-90